createdAt,value
2017-07-28T00:01:06.294Z,59.60
2017-07-28T00:03:34.055Z,59.60
2017-07-28T00:06:01.817Z,59.50
2017-07-28T00:08:29.480Z,59.60
2017-07-28T00:10:57.140Z,59.70
2017-07-28T00:13:24.907Z,59.70
2017-07-28T00:15:52.672Z,59.60
2017-07-28T00:18:20.437Z,59.60
2017-07-28T00:20:48.200Z,59.60
2017-07-28T00:23:15.967Z,59.60
2017-07-28T00:25:43.731Z,59.60
2017-07-28T00:28:11.403Z,59.50
2017-07-28T00:30:39.156Z,59.70
2017-07-28T00:33:06.946Z,59.60
2017-07-28T00:35:34.609Z,59.70
2017-07-28T00:38:02.255Z,59.60
2017-07-28T00:40:30.107Z,59.90
2017-07-28T00:42:57.773Z,59.40
2017-07-28T00:45:25.462Z,59.40
2017-07-28T00:47:53.199Z,59.40
2017-07-28T00:50:20.858Z,59.90
2017-07-28T00:52:48.624Z,59.50
2017-07-28T00:55:16.308Z,59.60
2017-07-28T00:57:43.976Z,59.60
2017-07-28T01:00:11.604Z,59.50
2017-07-28T01:02:39.477Z,59.70
2017-07-28T01:05:07.161Z,60.40
2017-07-28T01:07:34.919Z,59.60
2017-07-28T01:10:02.772Z,59.60
2017-07-28T01:12:30.531Z,59.50
2017-07-28T01:14:58.400Z,59.40
2017-07-28T01:17:26.061Z,59.40
2017-07-28T01:19:53.827Z,59.40
2017-07-28T01:22:21.480Z,59.40
2017-07-28T01:24:49.172Z,59.50
2017-07-28T01:27:17.015Z,59.50
2017-07-28T01:29:44.780Z,59.50
2017-07-28T01:32:12.543Z,59.60
2017-07-28T01:34:40.309Z,59.60
2017-07-28T01:37:07.970Z,59.60
2017-07-28T01:39:35.757Z,59.40
2017-07-28T01:42:03.503Z,59.50
2017-07-28T01:44:31.263Z,59.40
2017-07-28T01:46:59.028Z,59.30
2017-07-28T01:49:26.690Z,59.40
2017-07-28T01:51:54.454Z,59.40
2017-07-28T01:54:22.220Z,59.50
2017-07-28T01:56:50.086Z,59.50
2017-07-28T01:59:17.850Z,59.30
2017-07-28T02:01:45.612Z,59.40
2017-07-28T02:04:13.379Z,59.50
2017-07-28T02:06:41.139Z,59.50
2017-07-28T02:09:08.908Z,59.40
2017-07-28T02:11:36.669Z,59.20
2017-07-28T02:14:04.434Z,59.30
2017-07-28T02:16:32.121Z,59.30
2017-07-28T02:18:59.781Z,59.20
2017-07-28T02:21:27.523Z,59.20
2017-07-28T02:23:55.285Z,59.20
2017-07-28T02:26:22.971Z,59.20
2017-07-28T02:28:50.737Z,59.20
2017-07-28T02:31:18.478Z,59.40
2017-07-28T02:33:46.345Z,59.40
2017-07-28T02:36:14.112Z,59.40
2017-07-28T02:38:41.874Z,59.40
2017-07-28T02:41:09.635Z,59.20
2017-07-28T02:43:37.401Z,59.40
2017-07-28T02:46:05.182Z,59.20
2017-07-28T02:48:32.857Z,59.30
2017-07-28T02:51:00.591Z,59.20
2017-07-28T02:53:28.355Z,59.20
2017-07-28T02:55:56.228Z,59.10
2017-07-28T02:58:23.904Z,59.10
2017-07-28T03:00:51.647Z,59.00
2017-07-28T03:03:19.414Z,59.00
2017-07-28T03:05:47.095Z,59.10
2017-07-28T03:08:14.942Z,59.10
2017-07-28T03:10:42.571Z,59.20
2017-07-28T03:13:10.292Z,59.20
2017-07-28T03:15:38.131Z,59.20
2017-07-28T03:18:05.895Z,59.20
2017-07-28T03:20:33.679Z,59.10
2017-07-28T03:23:01.424Z,59.20
2017-07-28T03:25:29.054Z,59.20
2017-07-28T03:27:56.747Z,59.10
2017-07-28T03:30:24.433Z,59.20
2017-07-28T03:32:52.276Z,59.20
2017-07-28T03:35:19.960Z,59.10
2017-07-28T03:37:47.806Z,59.20
2017-07-28T03:40:15.569Z,59.40
2017-07-28T03:42:43.252Z,59.30
2017-07-28T03:45:11.001Z,59.20
2017-07-28T03:47:38.760Z,59.20
2017-07-28T03:50:06.439Z,59.10
2017-07-28T03:52:34.185Z,59.20
2017-07-28T03:55:02.056Z,59.20
2017-07-28T03:57:29.712Z,59.20
2017-07-28T03:59:57.396Z,59.30
2017-07-28T04:02:25.241Z,59.50
2017-07-28T04:04:52.928Z,59.50
2017-07-28T04:07:20.770Z,59.50
2017-07-28T04:09:48.457Z,59.60
2017-07-28T04:12:16.215Z,59.60
2017-07-28T04:14:43.963Z,59.60
2017-07-28T04:17:11.650Z,59.70
2017-07-28T04:19:39.490Z,59.80
2017-07-28T04:22:07.256Z,59.90
2017-07-28T04:24:35.120Z,60.10
2017-07-28T04:27:02.886Z,60.00
2017-07-28T04:29:30.649Z,60.20
2017-07-28T04:31:58.415Z,60.20
2017-07-28T04:34:26.103Z,60.40
2017-07-28T04:36:53.732Z,60.60
2017-07-28T04:39:21.426Z,60.40
2017-07-28T04:41:49.981Z,61.40
2017-07-28T04:44:17.678Z,61.40
2017-07-28T04:46:46.240Z,61.30
2017-07-28T04:49:13.994Z,60.80
2017-07-28T04:51:41.673Z,61.50
2017-07-28T04:54:09.418Z,61.40
2017-07-28T04:56:37.182Z,61.30
2017-07-28T04:59:05.051Z,61.60
2017-07-28T05:01:32.734Z,61.50
2017-07-28T05:04:00.477Z,61.80
2017-07-28T05:06:28.137Z,61.80
2017-07-28T05:08:56.006Z,61.90
2017-07-28T05:11:23.770Z,62.60
2017-07-28T05:13:51.536Z,62.00
2017-07-28T05:16:19.299Z,61.90
2017-07-28T05:18:46.974Z,61.80
2017-07-28T05:21:14.825Z,61.90
2017-07-28T05:23:42.591Z,61.80
2017-07-28T05:26:10.456Z,61.90
2017-07-28T05:28:38.220Z,62.00
2017-07-28T05:31:05.986Z,62.30
2017-07-28T05:33:33.748Z,62.10
2017-07-28T05:36:01.513Z,62.40
2017-07-28T05:38:29.183Z,62.40
2017-07-28T05:40:56.940Z,62.60
2017-07-28T05:43:24.807Z,62.40
2017-07-28T05:45:52.575Z,62.70
2017-07-28T05:48:20.334Z,62.60
2017-07-28T05:50:48.022Z,62.70
2017-07-28T05:53:15.762Z,62.70
2017-07-28T05:55:43.728Z,62.60
2017-07-28T05:58:11.411Z,63.70
2017-07-28T06:00:39.259Z,62.80
2017-07-28T06:03:07.022Z,62.70
2017-07-28T06:05:34.787Z,62.80
2017-07-28T06:08:02.548Z,62.90
2017-07-28T06:10:30.236Z,62.90
2017-07-28T06:12:58.005Z,62.70
2017-07-28T06:15:25.748Z,62.60
2017-07-28T06:17:53.533Z,62.40
2017-07-28T06:20:21.268Z,62.60
2017-07-28T06:22:49.035Z,62.60
2017-07-28T06:25:16.900Z,62.50
2017-07-28T06:27:44.667Z,62.60
2017-07-28T06:30:12.318Z,62.70
2017-07-28T06:32:40.017Z,62.70
2017-07-28T06:35:07.860Z,62.70
2017-07-28T06:37:35.549Z,62.70
2017-07-28T06:40:03.386Z,62.80
2017-07-28T06:42:31.252Z,62.80
2017-07-28T06:44:59.015Z,62.80
2017-07-28T06:47:26.780Z,62.70
2017-07-28T06:49:54.470Z,62.90
2017-07-28T06:52:23.230Z,62.70
2017-07-28T06:54:50.964Z,62.60
2017-07-28T06:57:18.758Z,62.60
2017-07-28T06:59:46.522Z,62.60
2017-07-28T07:02:14.286Z,62.60
2017-07-28T07:04:42.051Z,62.50
2017-07-28T07:07:09.939Z,62.60
2017-07-28T07:09:37.703Z,62.50
2017-07-28T07:12:05.550Z,62.60
2017-07-28T07:14:33.317Z,62.30
2017-07-28T07:17:01.179Z,62.20
2017-07-28T07:19:28.941Z,62.30
2017-07-28T07:21:56.731Z,62.50
2017-07-28T07:24:24.587Z,62.30
2017-07-28T07:26:52.558Z,62.30
2017-07-28T07:29:20.365Z,62.10
2017-07-28T07:31:48.200Z,62.10
2017-07-28T07:34:16.758Z,62.60
2017-07-28T07:36:44.527Z,61.70
2017-07-28T07:39:12.398Z,61.70
2017-07-28T07:41:40.194Z,61.70
2017-07-28T07:44:08.861Z,61.70
2017-07-28T07:46:36.602Z,61.60
2017-07-28T07:49:04.379Z,61.60
2017-07-28T07:51:32.237Z,61.30
2017-07-28T07:53:59.997Z,60.80
2017-07-28T07:56:27.771Z,60.40
2017-07-28T07:58:55.643Z,59.90
2017-07-28T08:01:23.512Z,60.00
2017-07-28T08:03:51.382Z,60.20
2017-07-28T08:06:19.252Z,60.10
2017-07-28T08:08:47.122Z,60.00
2017-07-28T08:11:14.924Z,60.00
2017-07-28T08:13:42.836Z,60.00
2017-07-28T08:16:10.699Z,59.90
2017-07-28T08:18:38.523Z,60.40
2017-07-28T08:21:06.327Z,59.30
2017-07-28T08:23:34.088Z,59.40
2017-07-28T08:26:01.861Z,59.40
2017-07-28T08:28:29.781Z,59.10
2017-07-28T08:30:57.871Z,59.30
2017-07-28T08:33:26.275Z,59.00
2017-07-28T08:35:54.262Z,58.90
2017-07-28T08:38:22.334Z,59.00
2017-07-28T08:40:50.301Z,58.90
2017-07-28T08:43:19.403Z,59.30
2017-07-28T08:45:47.265Z,58.60
2017-07-28T08:48:15.123Z,58.60
2017-07-28T08:50:42.897Z,58.70
2017-07-28T08:53:10.700Z,58.90
2017-07-28T08:55:38.465Z,58.90
2017-07-28T08:58:06.270Z,58.50
2017-07-28T09:00:34.035Z,58.30
2017-07-28T09:03:01.918Z,58.40
2017-07-28T09:05:29.791Z,58.20
2017-07-28T09:07:57.452Z,58.10
2017-07-28T09:10:25.195Z,57.80
2017-07-28T09:12:52.956Z,57.40
2017-07-28T09:15:20.725Z,57.00
2017-07-28T09:17:49.906Z,56.80
2017-07-28T09:20:17.585Z,56.80
2017-07-28T09:22:45.254Z,56.90
2017-07-28T09:25:13.020Z,56.60
2017-07-28T09:27:40.687Z,57.00
2017-07-28T09:30:08.450Z,56.70
2017-07-28T09:32:36.199Z,56.50
2017-07-28T09:35:03.963Z,56.70
2017-07-28T09:37:31.626Z,56.90
2017-07-28T09:39:59.390Z,57.00
2017-07-28T09:42:27.049Z,56.70
2017-07-28T09:44:54.917Z,56.70
2017-07-28T09:47:22.683Z,56.50
2017-07-28T09:49:50.567Z,56.00
2017-07-28T09:52:18.311Z,55.70
2017-07-28T09:54:46.095Z,55.70
2017-07-28T09:57:13.865Z,55.60
2017-07-28T09:59:41.723Z,57.10
2017-07-28T10:02:09.575Z,57.30
2017-07-28T10:04:37.339Z,57.70
2017-07-28T10:07:05.021Z,57.30
2017-07-28T10:09:32.867Z,57.20
2017-07-28T10:12:00.632Z,56.90
2017-07-28T10:14:28.331Z,56.70
2017-07-28T10:16:56.715Z,56.10
2017-07-28T10:19:24.539Z,55.80
2017-07-28T10:21:52.172Z,55.70
2017-07-28T10:24:19.890Z,55.00
2017-07-28T10:26:47.548Z,54.80
2017-07-28T10:29:15.391Z,55.10
2017-07-28T10:31:43.090Z,55.30
2017-07-28T10:34:11.562Z,54.50
2017-07-28T10:36:39.402Z,54.50
2017-07-28T10:39:07.164Z,54.50
2017-07-28T10:41:34.799Z,54.60
2017-07-28T10:44:02.594Z,54.50
2017-07-28T10:46:30.356Z,54.20
2017-07-28T10:48:58.119Z,54.00
2017-07-28T10:51:25.884Z,54.30
2017-07-28T10:53:53.563Z,54.00
2017-07-28T10:56:21.239Z,53.40
2017-07-28T10:58:49.790Z,53.10
2017-07-28T11:01:17.552Z,53.00
2017-07-28T11:03:45.321Z,52.60
2017-07-28T11:06:13.083Z,52.10
2017-07-28T11:08:40.847Z,52.10
2017-07-28T11:11:08.609Z,52.00
2017-07-28T11:13:36.377Z,53.20
2017-07-28T11:16:04.141Z,54.20
2017-07-28T11:18:31.914Z,55.50
2017-07-28T11:20:59.567Z,55.90
2017-07-28T11:23:27.342Z,56.70
2017-07-28T11:25:55.020Z,57.00
2017-07-28T11:28:22.775Z,57.00
2017-07-28T11:30:50.520Z,56.90
2017-07-28T11:33:18.407Z,57.00
2017-07-28T11:35:46.066Z,57.00
2017-07-28T11:38:13.732Z,56.50
2017-07-28T11:40:41.577Z,56.60
2017-07-28T11:43:09.464Z,56.00
2017-07-28T11:45:37.310Z,55.50
2017-07-28T11:48:05.075Z,55.40
2017-07-28T11:50:32.837Z,55.40
2017-07-28T11:53:00.528Z,55.20
2017-07-28T11:55:28.267Z,54.90
2017-07-28T11:57:55.943Z,54.70
2017-07-28T12:00:23.693Z,54.80
2017-07-28T12:02:51.356Z,54.80
2017-07-28T12:05:19.122Z,54.60
2017-07-28T12:07:46.986Z,54.50
2017-07-28T12:10:14.673Z,54.70
2017-07-28T12:12:42.411Z,54.90
2017-07-28T12:15:10.097Z,54.80
2017-07-28T12:17:37.837Z,55.30
2017-07-28T12:20:05.703Z,55.80
2017-07-28T12:22:33.397Z,56.30
2017-07-28T12:25:01.951Z,56.80
2017-07-28T12:27:29.712Z,56.80
2017-07-28T12:29:57.373Z,57.20
2017-07-28T12:32:25.138Z,57.40
2017-07-28T12:34:52.775Z,57.60
2017-07-28T12:37:20.481Z,58.10
2017-07-28T12:39:48.229Z,58.20
2017-07-28T12:42:15.915Z,58.60
2017-07-28T12:44:43.759Z,59.00
2017-07-28T12:47:11.521Z,59.10
2017-07-28T12:49:39.284Z,59.40
2017-07-28T12:52:07.051Z,59.50
2017-07-28T12:54:34.814Z,59.60
2017-07-28T12:57:02.496Z,59.90
2017-07-28T12:59:30.238Z,60.10
2017-07-28T13:01:58.005Z,60.80
2017-07-28T13:04:25.768Z,61.10
2017-07-28T13:06:53.635Z,60.60
2017-07-28T13:09:21.398Z,61.30
2017-07-28T13:11:49.266Z,59.90
2017-07-28T13:14:16.954Z,60.30
2017-07-28T13:16:44.793Z,59.90
2017-07-28T13:19:12.885Z,59.90
2017-07-28T13:21:40.536Z,59.40
2017-07-28T13:24:08.515Z,60.10
2017-07-28T13:26:36.385Z,59.70
2017-07-28T13:29:04.253Z,59.10
2017-07-28T13:31:32.113Z,58.40
2017-07-28T13:33:59.981Z,58.90
2017-07-28T13:36:27.948Z,60.50
2017-07-28T13:38:55.817Z,61.20
2017-07-28T13:41:23.786Z,60.60
2017-07-28T13:43:51.756Z,59.80
2017-07-28T13:46:38.451Z,59.90
2017-07-28T13:49:06.333Z,59.20
2017-07-28T13:51:34.113Z,59.60
2017-07-28T13:54:02.782Z,59.40
2017-07-28T13:56:30.640Z,59.40
2017-07-28T13:58:58.520Z,59.80
2017-07-28T14:01:26.257Z,59.50
2017-07-28T14:03:54.123Z,59.80
2017-07-28T14:06:21.888Z,60.30
2017-07-28T14:08:49.572Z,61.20
2017-07-28T14:11:17.417Z,62.30
2017-07-28T14:13:45.181Z,63.20
2017-07-28T14:16:12.863Z,62.90
2017-07-28T14:18:40.607Z,62.60
2017-07-28T14:21:08.484Z,63.30
2017-07-28T14:23:36.238Z,62.70
2017-07-28T14:26:04.001Z,62.60
2017-07-28T14:28:31.871Z,62.10
2017-07-28T14:30:59.633Z,61.60
2017-07-28T14:33:27.313Z,61.00
2017-07-28T14:35:55.163Z,60.20
2017-07-28T14:38:22.842Z,59.80
2017-07-28T14:40:50.505Z,59.30
2017-07-28T14:43:18.176Z,59.10
2017-07-28T14:45:45.837Z,58.80
2017-07-28T14:48:13.785Z,58.60
2017-07-28T14:50:42.367Z,58.20
2017-07-28T14:53:10.130Z,58.10
2017-07-28T14:55:37.889Z,58.00
2017-07-28T14:58:05.575Z,58.00
2017-07-28T15:00:33.341Z,57.60
2017-07-28T15:03:01.085Z,57.20
2017-07-28T15:05:28.768Z,57.10
2017-07-28T15:07:56.610Z,56.60
2017-07-28T15:10:24.373Z,56.40
2017-07-28T15:12:52.026Z,56.60
2017-07-28T15:15:19.720Z,56.70
2017-07-28T15:17:47.466Z,56.50
2017-07-28T15:20:15.226Z,56.40
2017-07-28T15:22:42.991Z,56.40
2017-07-28T15:25:10.858Z,56.50
2017-07-28T15:27:38.729Z,56.50
2017-07-28T15:30:06.486Z,56.60
2017-07-28T15:32:34.147Z,56.60
2017-07-28T15:35:01.913Z,56.60
2017-07-28T15:37:29.589Z,56.50
2017-07-28T15:39:57.258Z,56.40
2017-07-28T15:42:25.011Z,56.40
2017-07-28T15:44:52.763Z,56.40
2017-07-28T15:47:20.453Z,56.20
2017-07-28T15:49:48.295Z,56.30
2017-07-28T15:52:15.970Z,56.30
2017-07-28T15:54:43.718Z,56.20
2017-07-28T15:57:11.483Z,56.40
2017-07-28T15:59:39.138Z,56.60
2017-07-28T16:02:06.832Z,56.50
2017-07-28T16:04:34.674Z,56.40
2017-07-28T16:07:02.334Z,56.50
2017-07-28T16:09:30.028Z,56.60
2017-07-28T16:11:57.762Z,56.60
2017-07-28T16:14:25.450Z,56.60
2017-07-28T16:16:53.210Z,56.40
2017-07-28T16:19:20.957Z,56.20
2017-07-28T16:21:49.844Z,56.30
2017-07-28T16:24:17.474Z,56.30
2017-07-28T16:26:45.193Z,56.50
2017-07-28T16:29:13.061Z,56.70
2017-07-28T16:31:40.921Z,56.80
2017-07-28T16:34:08.665Z,56.90
2017-07-28T16:36:36.550Z,57.10
2017-07-28T16:39:04.521Z,57.00
2017-07-28T16:41:32.382Z,56.90
2017-07-28T16:44:00.234Z,56.80
2017-07-28T16:46:27.870Z,56.80
2017-07-28T16:48:55.576Z,56.50
2017-07-28T16:51:23.345Z,56.70
2017-07-28T16:53:51.804Z,56.60
2017-07-28T16:56:19.567Z,56.70
2017-07-28T16:58:47.333Z,56.30
2017-07-28T17:01:15.202Z,56.30
2017-07-28T17:03:42.959Z,56.40
2017-07-28T17:06:10.747Z,56.30
2017-07-28T17:08:38.592Z,56.30
2017-07-28T17:11:06.275Z,56.30
2017-07-28T17:13:33.944Z,56.40
2017-07-28T17:16:01.604Z,56.40
2017-07-28T17:18:29.353Z,56.30
2017-07-28T17:20:57.110Z,56.30
2017-07-28T17:23:24.795Z,56.20
2017-07-28T17:25:52.535Z,56.30
2017-07-28T17:28:20.297Z,56.40
2017-07-28T17:30:48.061Z,56.40
2017-07-28T17:33:15.826Z,56.40
2017-07-28T17:35:43.458Z,56.50
2017-07-28T17:38:11.146Z,56.80
2017-07-28T17:40:38.915Z,56.60
2017-07-28T17:43:06.678Z,56.60
2017-07-28T17:45:34.450Z,56.60
2017-07-28T17:48:02.207Z,56.70
2017-07-28T17:50:29.893Z,56.80
2017-07-28T17:52:57.634Z,56.80
2017-07-28T17:55:25.268Z,56.90
2017-07-28T17:57:53.025Z,56.90
2017-07-28T18:00:20.739Z,56.80
2017-07-28T18:02:48.514Z,56.80
2017-07-28T18:05:16.249Z,56.80
2017-07-28T18:07:43.914Z,56.80
2017-07-28T18:10:11.608Z,56.80
2017-07-28T18:12:40.156Z,57.10
2017-07-28T18:15:07.837Z,56.80
2017-07-28T18:17:35.685Z,56.90
2017-07-28T18:20:03.451Z,56.80
2017-07-28T18:22:31.216Z,56.60
2017-07-28T18:24:59.001Z,56.80
2017-07-28T18:27:26.744Z,56.80
2017-07-28T18:29:54.506Z,56.80
2017-07-28T18:32:22.196Z,56.80
2017-07-28T18:34:49.848Z,56.70
2017-07-28T18:37:17.699Z,56.80
2017-07-28T18:39:45.466Z,56.90
2017-07-28T18:42:13.335Z,56.90
2017-07-28T18:44:41.013Z,56.90
2017-07-28T18:47:08.772Z,57.00
2017-07-28T18:49:36.540Z,57.10
2017-07-28T18:52:04.284Z,57.10
2017-07-28T18:54:32.047Z,57.10
2017-07-28T18:56:59.814Z,57.20
2017-07-28T18:59:27.678Z,57.20
2017-07-28T19:01:55.311Z,57.10
2017-07-28T19:04:23.103Z,57.30
2017-07-28T19:06:50.783Z,57.30
2017-07-28T19:09:18.530Z,57.30
2017-07-28T19:11:46.294Z,57.30
2017-07-28T19:14:14.060Z,57.40
2017-07-28T19:16:41.925Z,57.40
2017-07-28T19:19:09.606Z,57.40
2017-07-28T19:21:37.239Z,57.60
2017-07-28T19:24:05.013Z,57.50
2017-07-28T19:26:32.775Z,57.60
2017-07-28T19:29:00.653Z,57.60
2017-07-28T19:31:28.408Z,57.70
2017-07-28T19:33:56.097Z,57.70
2017-07-28T19:36:23.836Z,57.70
2017-07-28T19:38:51.599Z,57.70
2017-07-28T19:41:19.467Z,57.50
2017-07-28T19:43:47.098Z,57.60
2017-07-28T19:46:14.893Z,57.80
2017-07-28T19:48:42.654Z,57.80
2017-07-28T19:51:10.455Z,57.80
2017-07-28T19:53:39.004Z,57.30
2017-07-28T19:56:06.636Z,57.60
2017-07-28T19:58:34.431Z,57.70
2017-07-28T20:01:02.195Z,57.60
2017-07-28T20:03:29.855Z,57.60
2017-07-28T20:05:57.516Z,57.70
2017-07-28T20:08:25.204Z,57.70
2017-07-28T20:10:52.945Z,57.70
2017-07-28T20:13:20.811Z,57.60
2017-07-28T20:15:48.577Z,57.60
2017-07-28T20:18:16.339Z,57.70
2017-07-28T20:20:44.103Z,57.70
2017-07-28T20:23:11.730Z,57.60
2017-07-28T20:25:39.532Z,57.50
2017-07-28T20:28:07.295Z,58.00
2017-07-28T20:30:35.088Z,57.60
2017-07-28T20:33:02.925Z,57.40
2017-07-28T20:35:30.610Z,57.40
2017-07-28T20:37:58.453Z,57.50
2017-07-28T20:40:26.115Z,57.40
2017-07-28T20:42:53.880Z,57.40
2017-07-28T20:45:21.641Z,57.40
2017-07-28T20:47:49.309Z,57.30
2017-07-28T20:50:17.070Z,57.40
2017-07-28T20:52:44.834Z,57.30
2017-07-28T20:55:12.598Z,57.30
2017-07-28T20:57:40.261Z,57.20
2017-07-28T21:00:08.660Z,57.80
2017-07-28T21:02:36.631Z,57.20
2017-07-28T21:05:04.591Z,57.20
2017-07-28T21:07:33.699Z,57.10
2017-07-28T21:10:02.257Z,57.10
2017-07-28T21:12:29.940Z,57.00
2017-07-28T21:15:00.653Z,57.60
2017-07-28T21:17:28.416Z,57.20
2017-07-28T21:19:56.095Z,57.20
2017-07-28T21:22:23.868Z,57.20
2017-07-28T21:24:51.719Z,57.20
2017-07-28T21:27:19.379Z,57.30
2017-07-28T21:29:47.256Z,57.30
2017-07-28T21:32:15.007Z,57.40
2017-07-28T21:34:42.690Z,57.30
2017-07-28T21:37:10.428Z,57.20
2017-07-28T21:39:38.191Z,57.40
2017-07-28T21:42:05.957Z,57.40
2017-07-28T21:44:33.720Z,57.40
2017-07-28T21:47:01.485Z,57.30
2017-07-28T21:49:29.248Z,57.40
2017-07-28T21:51:57.014Z,57.40
2017-07-28T21:54:24.777Z,57.50
2017-07-28T21:56:52.542Z,57.50
2017-07-28T21:59:20.304Z,57.50
2017-07-28T22:01:48.094Z,57.50
2017-07-28T22:04:16.566Z,58.20
2017-07-28T22:06:44.418Z,57.50
2017-07-28T22:09:12.184Z,57.60
2017-07-28T22:11:39.948Z,57.50
2017-07-28T22:14:07.709Z,57.60
2017-07-28T22:16:35.579Z,57.60
2017-07-28T22:19:03.259Z,57.70
2017-07-28T22:21:31.001Z,57.70
2017-07-28T22:23:58.664Z,57.70
2017-07-28T22:26:26.430Z,57.80
2017-07-28T22:28:54.069Z,57.80
2017-07-28T22:31:21.771Z,57.80
2017-07-28T22:33:50.736Z,57.90
2017-07-28T22:36:18.510Z,58.00
2017-07-28T22:38:46.276Z,58.00
2017-07-28T22:41:14.142Z,58.00
2017-07-28T22:43:42.010Z,58.00
2017-07-28T22:46:09.772Z,58.00
2017-07-28T22:48:37.539Z,58.10
2017-07-28T22:51:05.166Z,58.20
2017-07-28T22:53:32.963Z,58.20
2017-07-28T22:56:00.654Z,58.30
2017-07-28T22:58:28.492Z,58.40
2017-07-28T23:00:56.159Z,58.40
2017-07-28T23:03:24.021Z,58.50
2017-07-28T23:05:51.783Z,58.50
2017-07-28T23:08:19.548Z,58.40
2017-07-28T23:10:47.232Z,58.40
2017-07-28T23:13:14.974Z,58.40
2017-07-28T23:15:42.739Z,58.60
2017-07-28T23:18:10.434Z,58.60
2017-07-28T23:20:38.268Z,58.60
2017-07-28T23:23:05.962Z,58.60
2017-07-28T23:25:33.799Z,58.60
2017-07-28T23:28:01.564Z,58.80
2017-07-28T23:30:29.242Z,58.70
2017-07-28T23:32:56.989Z,58.80
2017-07-28T23:35:24.775Z,58.80
2017-07-28T23:37:52.513Z,58.80
2017-07-28T23:40:20.199Z,58.80
2017-07-28T23:42:47.950Z,58.80
2017-07-28T23:45:15.809Z,58.80
2017-07-28T23:47:43.492Z,59.00
2017-07-28T23:50:11.175Z,59.00
2017-07-28T23:52:39.721Z,59.10
2017-07-28T23:55:07.588Z,59.10
2017-07-28T23:57:35.348Z,59.10
